sensor_id;sensor_type;location;lat;lon;timestamp;pressure;altitude;pressure_sealevel;temperature;humidity
22259;BME280;11298;46.034;14.496;2022-11-20T00:00:56;97561.03;;;5.56;93.36
22259;BME280;11298;46.034;14.496;2022-11-20T00:03:23;97568.50;;;5.54;93.39
22259;BME280;11298;46.034;14.496;2022-11-20T00:05:50;97570.38;;;5.54;93.43
22259;BME280;11298;46.034;14.496;2022-11-20T00:08:17;97573.25;;;5.52;93.42
22259;BME280;11298;46.034;14.496;2022-11-20T00:10:44;97574.25;;;5.45;93.28
22259;BME280;11298;46.034;14.496;2022-11-20T00:13:11;97563.13;;;5.26;93.61
22259;BME280;11298;46.034;14.496;2022-11-20T00:15:38;97574.97;;;5.32;93.74
22259;BME280;11298;46.034;14.496;2022-11-20T00:18:05;97570.81;;;5.29;93.80
22259;BME280;11298;46.034;14.496;2022-11-20T00:20:32;97581.00;;;5.34;93.69
22259;BME280;11298;46.034;14.496;2022-11-20T00:22:59;97582.25;;;5.38;93.94
22259;BME280;11298;46.034;14.496;2022-11-20T00:25:26;97579.31;;;5.33;93.96
22259;BME280;11298;46.034;14.496;2022-11-20T00:27:53;97596.09;;;5.35;94.00
22259;BME280;11298;46.034;14.496;2022-11-20T00:30:20;97584.06;;;5.31;94.32
22259;BME280;11298;46.034;14.496;2022-11-20T00:32:47;97588.81;;;5.29;94.29
22259;BME280;11298;46.034;14.496;2022-11-20T00:35:14;97596.50;;;5.32;94.52
22259;BME280;11298;46.034;14.496;2022-11-20T00:37:42;97598.56;;;5.30;94.58
22259;BME280;11298;46.034;14.496;2022-11-20T00:40:09;97599.56;;;5.29;94.60
22259;BME280;11298;46.034;14.496;2022-11-20T00:42:36;97595.84;;;5.30;94.65
22259;BME280;11298;46.034;14.496;2022-11-20T00:45:03;97603.94;;;5.30;94.76
22259;BME280;11298;46.034;14.496;2022-11-20T00:47:31;97597.72;;;5.29;94.59
22259;BME280;11298;46.034;14.496;2022-11-20T00:49:58;97598.94;;;5.27;94.65
22259;BME280;11298;46.034;14.496;2022-11-20T00:52:24;97600.03;;;5.32;94.59
22259;BME280;11298;46.034;14.496;2022-11-20T00:54:51;97604.44;;;5.40;94.59
22259;BME280;11298;46.034;14.496;2022-11-20T00:57:18;97594.84;;;5.31;94.62
22259;BME280;11298;46.034;14.496;2022-11-20T00:59:45;97604.75;;;5.30;94.83
22259;BME280;11298;46.034;14.496;2022-11-20T01:02:13;97601.25;;;5.30;94.84
22259;BME280;11298;46.034;14.496;2022-11-20T01:04:42;97602.66;;;5.26;94.78
22259;BME280;11298;46.034;14.496;2022-11-20T01:07:10;97599.72;;;5.21;94.88
22259;BME280;11298;46.034;14.496;2022-11-20T01:09:37;97605.94;;;5.21;95.00
22259;BME280;11298;46.034;14.496;2022-11-20T01:12:05;97607.78;;;5.21;95.04
22259;BME280;11298;46.034;14.496;2022-11-20T01:14:31;97603.84;;;5.17;95.09
22259;BME280;11298;46.034;14.496;2022-11-20T01:16:58;97604.22;;;5.14;95.28
22259;BME280;11298;46.034;14.496;2022-11-20T01:19:25;97603.59;;;5.12;95.06
22259;BME280;11298;46.034;14.496;2022-11-20T01:21:53;97605.06;;;5.14;95.33
22259;BME280;11298;46.034;14.496;2022-11-20T01:24:21;97606.53;;;5.17;95.18
22259;BME280;11298;46.034;14.496;2022-11-20T01:26:50;97615.00;;;5.14;95.44
22259;BME280;11298;46.034;14.496;2022-11-20T01:29:23;97614.34;;;5.12;95.06
22259;BME280;11298;46.034;14.496;2022-11-20T01:31:51;97614.47;;;5.03;95.37
22259;BME280;11298;46.034;14.496;2022-11-20T01:34:21;97611.66;;;4.90;95.48
22259;BME280;11298;46.034;14.496;2022-11-20T01:36:49;97611.47;;;4.92;95.46
22259;BME280;11298;46.034;14.496;2022-11-20T01:39:20;97608.59;;;4.93;95.48
22259;BME280;11298;46.034;14.496;2022-11-20T01:41:49;97619.53;;;4.92;95.81
22259;BME280;11298;46.034;14.496;2022-11-20T01:44:51;97615.19;;;4.91;95.38
22259;BME280;11298;46.034;14.496;2022-11-20T01:47:27;97616.03;;;4.91;95.04
22259;BME280;11298;46.034;14.496;2022-11-20T01:50:06;97618.78;;;4.77;95.44
22259;BME280;11298;46.034;14.496;2022-11-20T01:52:49;97615.00;;;4.71;95.43
22259;BME280;11298;46.034;14.496;2022-11-20T01:55:22;97617.81;;;4.63;95.93
22259;BME280;11298;46.034;14.496;2022-11-20T01:57:50;97609.09;;;4.61;95.88
22259;BME280;11298;46.034;14.496;2022-11-20T02:00:19;97607.16;;;4.55;95.90
22259;BME280;11298;46.034;14.496;2022-11-20T02:03:08;97601.09;;;4.46;95.86
22259;BME280;11298;46.034;14.496;2022-11-20T02:05:46;97612.69;;;4.47;95.80
22259;BME280;11298;46.034;14.496;2022-11-20T02:08:15;97607.22;;;4.40;96.13
22259;BME280;11298;46.034;14.496;2022-11-20T02:10:42;97615.47;;;4.38;96.16
22259;BME280;11298;46.034;14.496;2022-11-20T02:13:09;97599.75;;;4.35;96.29
22259;BME280;11298;46.034;14.496;2022-11-20T02:15:55;97607.53;;;4.30;96.38
22259;BME280;11298;46.034;14.496;2022-11-20T02:18:23;97606.69;;;4.30;96.42
22259;BME280;11298;46.034;14.496;2022-11-20T02:20:54;97601.25;;;4.23;96.71
22259;BME280;11298;46.034;14.496;2022-11-20T02:23:39;97600.22;;;4.24;96.84
22259;BME280;11298;46.034;14.496;2022-11-20T02:26:10;97613.47;;;4.26;96.61
22259;BME280;11298;46.034;14.496;2022-11-20T02:28:39;97609.38;;;4.30;96.81
22259;BME280;11298;46.034;14.496;2022-11-20T02:31:06;97611.88;;;4.31;96.52
22259;BME280;11298;46.034;14.496;2022-11-20T02:33:33;97609.19;;;4.31;96.71
22259;BME280;11298;46.034;14.496;2022-11-20T02:36:00;97614.19;;;4.34;96.52
22259;BME280;11298;46.034;14.496;2022-11-20T02:38:28;97600.13;;;4.32;96.56
22259;BME280;11298;46.034;14.496;2022-11-20T02:40:55;97607.97;;;4.34;96.54
22259;BME280;11298;46.034;14.496;2022-11-20T02:43:22;97598.16;;;4.41;96.83
22259;BME280;11298;46.034;14.496;2022-11-20T02:45:49;97606.47;;;4.46;96.42
22259;BME280;11298;46.034;14.496;2022-11-20T02:48:17;97609.53;;;4.43;96.42
22259;BME280;11298;46.034;14.496;2022-11-20T02:50:43;97602.31;;;4.44;96.73
22259;BME280;11298;46.034;14.496;2022-11-20T02:53:11;97602.59;;;4.49;96.89
22259;BME280;11298;46.034;14.496;2022-11-20T02:55:38;97602.78;;;4.47;96.67
22259;BME280;11298;46.034;14.496;2022-11-20T02:58:05;97598.41;;;4.46;96.64
22259;BME280;11298;46.034;14.496;2022-11-20T03:00:32;97598.88;;;4.50;96.64
22259;BME280;11298;46.034;14.496;2022-11-20T03:02:59;97609.03;;;4.54;96.79
22259;BME280;11298;46.034;14.496;2022-11-20T03:05:26;97597.00;;;4.50;96.44
22259;BME280;11298;46.034;14.496;2022-11-20T03:07:53;97611.25;;;4.51;96.65
22259;BME280;11298;46.034;14.496;2022-11-20T03:10:20;97602.31;;;4.44;96.69
22259;BME280;11298;46.034;14.496;2022-11-20T03:12:55;97598.72;;;4.36;96.49
22259;BME280;11298;46.034;14.496;2022-11-20T03:15:23;97605.38;;;4.41;96.57
22259;BME280;11298;46.034;14.496;2022-11-20T03:17:53;97612.41;;;4.42;96.58
22259;BME280;11298;46.034;14.496;2022-11-20T03:20:22;97612.78;;;4.38;96.64
22259;BME280;11298;46.034;14.496;2022-11-20T03:22:49;97614.38;;;4.33;96.46
22259;BME280;11298;46.034;14.496;2022-11-20T03:25:17;97607.22;;;4.40;96.62
22259;BME280;11298;46.034;14.496;2022-11-20T03:27:43;97604.34;;;4.42;96.46
22259;BME280;11298;46.034;14.496;2022-11-20T03:30:11;97605.56;;;4.39;96.06
22259;BME280;11298;46.034;14.496;2022-11-20T03:32:58;97600.19;;;4.39;96.16
22259;BME280;11298;46.034;14.496;2022-11-20T03:35:25;97601.66;;;4.42;96.34
22259;BME280;11298;46.034;14.496;2022-11-20T03:37:52;97592.13;;;4.39;96.09
22259;BME280;11298;46.034;14.496;2022-11-20T03:40:19;97600.13;;;4.32;96.13
22259;BME280;11298;46.034;14.496;2022-11-20T03:42:46;97596.25;;;4.20;96.13
22259;BME280;11298;46.034;14.496;2022-11-20T03:45:15;97605.31;;;4.19;96.54
22259;BME280;11298;46.034;14.496;2022-11-20T03:47:43;97605.69;;;4.16;96.26
22259;BME280;11298;46.034;14.496;2022-11-20T03:50:11;97609.81;;;4.12;96.49
22259;BME280;11298;46.034;14.496;2022-11-20T03:52:40;97589.34;;;4.11;96.72
22259;BME280;11298;46.034;14.496;2022-11-20T03:55:08;97603.66;;;4.18;96.69
22259;BME280;11298;46.034;14.496;2022-11-20T03:57:35;97605.31;;;4.19;96.48
22259;BME280;11298;46.034;14.496;2022-11-20T04:00:03;97597.03;;;4.14;96.53
22259;BME280;11298;46.034;14.496;2022-11-20T04:02:31;97596.00;;;4.15;96.74
22259;BME280;11298;46.034;14.496;2022-11-20T04:04:58;97599.06;;;4.12;96.48
22259;BME280;11298;46.034;14.496;2022-11-20T04:07:25;97593.69;;;4.12;96.52
22259;BME280;11298;46.034;14.496;2022-11-20T04:09:52;97594.06;;;4.09;96.41
22259;BME280;11298;46.034;14.496;2022-11-20T04:12:19;97596.09;;;4.07;96.84
22259;BME280;11298;46.034;14.496;2022-11-20T04:14:46;97591.09;;;4.04;96.63
22259;BME280;11298;46.034;14.496;2022-11-20T04:17:13;97599.81;;;4.06;96.70
22259;BME280;11298;46.034;14.496;2022-11-20T04:19:40;97597.31;;;4.04;96.77
22259;BME280;11298;46.034;14.496;2022-11-20T04:22:07;97596.94;;;4.08;96.65
22259;BME280;11298;46.034;14.496;2022-11-20T04:24:35;97608.97;;;4.12;96.65
22259;BME280;11298;46.034;14.496;2022-11-20T04:27:02;97605.81;;;4.08;96.76
22259;BME280;11298;46.034;14.496;2022-11-20T04:29:29;97611.84;;;4.10;96.67
22259;BME280;11298;46.034;14.496;2022-11-20T04:31:56;97616.84;;;4.13;96.36
22259;BME280;11298;46.034;14.496;2022-11-20T04:34:23;97605.69;;;4.16;96.51
22259;BME280;11298;46.034;14.496;2022-11-20T04:36:50;97612.88;;;4.09;96.56
22259;BME280;11298;46.034;14.496;2022-11-20T04:39:17;97614.16;;;4.13;96.44
22259;BME280;11298;46.034;14.496;2022-11-20T04:41:45;97614.41;;;4.18;96.40
22259;BME280;11298;46.034;14.496;2022-11-20T04:44:12;97611.28;;;4.15;96.55
22259;BME280;11298;46.034;14.496;2022-11-20T04:46:41;97608.97;;;4.12;96.23
22259;BME280;11298;46.034;14.496;2022-11-20T04:49:10;97609.16;;;4.10;96.65
22259;BME280;11298;46.034;14.496;2022-11-20T04:51:37;97609.34;;;4.09;96.61
22259;BME280;11298;46.034;14.496;2022-11-20T04:54:04;97612.69;;;4.11;96.30
22259;BME280;11298;46.034;14.496;2022-11-20T04:56:31;97612.50;;;4.12;96.29
22259;BME280;11298;46.034;14.496;2022-11-20T04:59:02;97611.19;;;4.08;96.63
22259;BME280;11298;46.034;14.496;2022-11-20T05:01:29;97613.59;;;4.03;96.33
22259;BME280;11298;46.034;14.496;2022-11-20T05:03:57;97607.13;;;3.97;96.71
22259;BME280;11298;46.034;14.496;2022-11-20T05:06:24;97618.25;;;3.94;96.68
22259;BME280;11298;46.034;14.496;2022-11-20T05:08:51;97616.19;;;3.96;96.65
22259;BME280;11298;46.034;14.496;2022-11-20T05:11:21;97616.00;;;3.98;96.69
22259;BME280;11298;46.034;14.496;2022-11-20T05:13:50;97615.38;;;3.96;96.80
22259;BME280;11298;46.034;14.496;2022-11-20T05:16:20;97610.00;;;3.96;96.67
22259;BME280;11298;46.034;14.496;2022-11-20T05:18:49;97612.69;;;3.96;96.62
22259;BME280;11298;46.034;14.496;2022-11-20T05:21:17;97613.69;;;3.95;96.86
22259;BME280;11298;46.034;14.496;2022-11-20T05:23:45;97615.09;;;4.06;96.72
22259;BME280;11298;46.034;14.496;2022-11-20T05:26:14;97616.28;;;4.03;96.38
22259;BME280;11298;46.034;14.496;2022-11-20T05:28:42;97623.34;;;4.04;96.45
22259;BME280;11298;46.034;14.496;2022-11-20T05:31:11;97624.06;;;3.98;96.22
22259;BME280;11298;46.034;14.496;2022-11-20T05:33:43;97626.19;;;4.02;96.61
22259;BME280;11298;46.034;14.496;2022-11-20T05:36:12;97632.31;;;4.11;96.37
22259;BME280;11298;46.034;14.496;2022-11-20T05:38:40;97631.53;;;4.17;96.35
22259;BME280;11298;46.034;14.496;2022-11-20T05:41:17;97629.69;;;4.18;96.09
22259;BME280;11298;46.034;14.496;2022-11-20T05:43:46;97638.34;;;4.13;96.02
22259;BME280;11298;46.034;14.496;2022-11-20T05:46:15;97637.03;;;4.09;95.92
22259;BME280;11298;46.034;14.496;2022-11-20T05:48:43;97645.28;;;4.08;96.22
22259;BME280;11298;46.034;14.496;2022-11-20T05:51:14;97633.63;;;4.00;96.16
22259;BME280;11298;46.034;14.496;2022-11-20T05:53:42;97636.94;;;4.02;96.27
22259;BME280;11298;46.034;14.496;2022-11-20T05:56:17;97637.41;;;4.06;96.32
22259;BME280;11298;46.034;14.496;2022-11-20T05:58:45;97634.53;;;4.08;96.03
22259;BME280;11298;46.034;14.496;2022-11-20T06:01:18;97635.00;;;4.11;96.04
22259;BME280;11298;46.034;14.496;2022-11-20T06:03:46;97637.41;;;4.06;95.99
22259;BME280;11298;46.034;14.496;2022-11-20T06:06:15;97641.47;;;4.02;95.97
22259;BME280;11298;46.034;14.496;2022-11-20T06:08:43;97649.44;;;3.95;96.27
22259;BME280;11298;46.034;14.496;2022-11-20T06:11:13;97650.00;;;3.91;96.23
22259;BME280;11298;46.034;14.496;2022-11-20T06:13:42;97652.50;;;3.92;96.34
22259;BME280;11298;46.034;14.496;2022-11-20T06:16:11;97659.72;;;3.92;96.30
22259;BME280;11298;46.034;14.496;2022-11-20T06:18:38;97666.41;;;3.96;96.08
22259;BME280;11298;46.034;14.496;2022-11-20T06:21:09;97665.84;;;4.00;96.34
22259;BME280;11298;46.034;14.496;2022-11-20T06:23:36;97672.31;;;4.06;96.38
22259;BME280;11298;46.034;14.496;2022-11-20T06:26:06;97680.38;;;4.06;95.99
22259;BME280;11298;46.034;14.496;2022-11-20T06:28:34;97676.31;;;4.10;96.02
22259;BME280;11298;46.034;14.496;2022-11-20T06:31:02;97680.91;;;4.16;96.08
22259;BME280;11298;46.034;14.496;2022-11-20T06:33:30;97684.25;;;4.18;96.09
22259;BME280;11298;46.034;14.496;2022-11-20T06:35:58;97675.94;;;4.13;96.03
22259;BME280;11298;46.034;14.496;2022-11-20T06:38:29;97696.28;;;4.22;96.17
22259;BME280;11298;46.034;14.496;2022-11-20T06:40:56;97690.75;;;4.24;95.96
22259;BME280;11298;46.034;14.496;2022-11-20T06:43:24;97697.03;;;4.31;96.10
22259;BME280;11298;46.034;14.496;2022-11-20T06:45:53;97689.81;;;4.31;96.09
22259;BME280;11298;46.034;14.496;2022-11-20T06:48:21;97691.19;;;4.27;95.75
22259;BME280;11298;46.034;14.496;2022-11-20T06:50:48;97699.63;;;4.24;96.05
22259;BME280;11298;46.034;14.496;2022-11-20T06:53:15;97702.97;;;4.26;95.87
22259;BME280;11298;46.034;14.496;2022-11-20T06:55:44;97705.00;;;4.24;95.77
22259;BME280;11298;46.034;14.496;2022-11-20T06:58:13;97708.72;;;4.23;96.03
22259;BME280;11298;46.034;14.496;2022-11-20T07:00:40;97715.28;;;4.21;95.82
22259;BME280;11298;46.034;14.496;2022-11-20T07:03:09;97717.69;;;4.30;95.81
22259;BME280;11298;46.034;14.496;2022-11-20T07:05:37;97714.66;;;4.33;95.90
22259;BME280;11298;46.034;14.496;2022-11-20T07:08:05;97731.22;;;4.37;95.85
22259;BME280;11298;46.034;14.496;2022-11-20T07:10:32;97726.69;;;4.37;95.66
22259;BME280;11298;46.034;14.496;2022-11-20T07:12:59;97734.38;;;4.41;95.85
22259;BME280;11298;46.034;14.496;2022-11-20T07:15:27;97742.25;;;4.42;95.89
22259;BME280;11298;46.034;14.496;2022-11-20T07:17:54;97743.38;;;4.48;95.58
22259;BME280;11298;46.034;14.496;2022-11-20T07:20:21;97727.16;;;4.41;95.57
22259;BME280;11298;46.034;14.496;2022-11-20T07:22:53;97747.97;;;4.54;95.59
22259;BME280;11298;46.034;14.496;2022-11-20T07:25:22;97746.31;;;4.53;95.76
22259;BME280;11298;46.034;14.496;2022-11-20T07:27:50;97742.34;;;4.49;95.57
22259;BME280;11298;46.034;14.496;2022-11-20T07:30:17;97754.19;;;4.54;95.62
22259;BME280;11298;46.034;14.496;2022-11-20T07:32:51;97747.13;;;4.53;95.41
22259;BME280;11298;46.034;14.496;2022-11-20T07:35:19;97761.16;;;4.49;95.48
22259;BME280;11298;46.034;14.496;2022-11-20T07:37:46;97755.38;;;4.52;95.42
22259;BME280;11298;46.034;14.496;2022-11-20T07:40:14;97749.19;;;4.51;95.47
22259;BME280;11298;46.034;14.496;2022-11-20T07:42:51;97762.72;;;4.58;95.28
22259;BME280;11298;46.034;14.496;2022-11-20T07:45:20;97768.38;;;4.63;95.38
22259;BME280;11298;46.034;14.496;2022-11-20T07:47:48;97767.81;;;4.67;95.07
22259;BME280;11298;46.034;14.496;2022-11-20T07:50:16;97772.06;;;4.77;94.88
22259;BME280;11298;46.034;14.496;2022-11-20T07:52:43;97770.69;;;4.81;95.02
22259;BME280;11298;46.034;14.496;2022-11-20T07:55:11;97770.50;;;4.82;94.68
22259;BME280;11298;46.034;14.496;2022-11-20T07:57:38;97775.69;;;4.84;94.83
22259;BME280;11298;46.034;14.496;2022-11-20T08:00:07;97778.69;;;4.95;94.75
22259;BME280;11298;46.034;14.496;2022-11-20T08:02:38;97780.81;;;5.00;94.64
22259;BME280;11298;46.034;14.496;2022-11-20T08:05:07;97780.00;;;4.99;94.59
22259;BME280;11298;46.034;14.496;2022-11-20T08:07:41;97782.69;;;4.99;94.22
22259;BME280;11298;46.034;14.496;2022-11-20T08:10:12;97786.22;;;5.00;94.26
22259;BME280;11298;46.034;14.496;2022-11-20T08:12:47;97796.13;;;4.99;93.98
22259;BME280;11298;46.034;14.496;2022-11-20T08:15:33;97799.47;;;5.01;94.10
22259;BME280;11298;46.034;14.496;2022-11-20T08:20:48;97806.53;;;5.02;93.70
22259;BME280;11298;46.034;14.496;2022-11-20T08:23:16;97808.00;;;5.05;93.92
22259;BME280;11298;46.034;14.496;2022-11-20T08:25:49;97812.38;;;5.06;93.77
22259;BME280;11298;46.034;14.496;2022-11-20T08:28:16;97809.66;;;5.06;93.75
22259;BME280;11298;46.034;14.496;2022-11-20T08:30:48;97819.50;;;5.14;93.74
22259;BME280;11298;46.034;14.496;2022-11-20T08:33:14;97818.94;;;5.03;93.31
22259;BME280;11298;46.034;14.496;2022-11-20T08:35:42;97822.00;;;5.00;93.35
22259;BME280;11298;46.034;14.496;2022-11-20T08:38:09;97818.69;;;4.98;93.48
22259;BME280;11298;46.034;14.496;2022-11-20T08:40:36;97831.38;;;5.04;93.53
22259;BME280;11298;46.034;14.496;2022-11-20T08:43:03;97833.59;;;5.16;93.50
22259;BME280;11298;46.034;14.496;2022-11-20T08:45:31;97825.75;;;5.21;93.43
22259;BME280;11298;46.034;14.496;2022-11-20T08:48:04;97832.63;;;5.23;93.08
22259;BME280;11298;46.034;14.496;2022-11-20T08:50:31;97841.91;;;5.21;93.12
22259;BME280;11298;46.034;14.496;2022-11-20T08:53:03;97836.94;;;5.18;93.05
22259;BME280;11298;46.034;14.496;2022-11-20T08:55:31;97844.78;;;5.34;93.34
22259;BME280;11298;46.034;14.496;2022-11-20T08:57:58;97846.53;;;5.42;92.81
22259;BME280;11298;46.034;14.496;2022-11-20T09:00:30;97845.56;;;5.49;92.75
22259;BME280;11298;46.034;14.496;2022-11-20T09:02:57;97845.75;;;5.48;92.71
22259;BME280;11298;46.034;14.496;2022-11-20T09:05:26;97850.13;;;5.49;92.69
22259;BME280;11298;46.034;14.496;2022-11-20T09:07:57;97850.63;;;5.59;92.88
22259;BME280;11298;46.034;14.496;2022-11-20T09:10:25;97855.63;;;5.62;92.62
22259;BME280;11298;46.034;14.496;2022-11-20T09:12:53;97861.94;;;5.69;92.23
22259;BME280;11298;46.034;14.496;2022-11-20T09:15:20;97857.75;;;5.66;92.05
22259;BME280;11298;46.034;14.496;2022-11-20T09:17:55;97858.13;;;5.63;92.09
22259;BME280;11298;46.034;14.496;2022-11-20T09:20:23;97853.00;;;5.68;92.01
22259;BME280;11298;46.034;14.496;2022-11-20T09:22:50;97863.66;;;5.77;92.17
22259;BME280;11298;46.034;14.496;2022-11-20T09:25:18;97849.09;;;5.71;91.65
22259;BME280;11298;46.034;14.496;2022-11-20T09:27:45;97853.91;;;5.76;91.82
22259;BME280;11298;46.034;14.496;2022-11-20T09:30:14;97854.00;;;5.82;91.64
22259;BME280;11298;46.034;14.496;2022-11-20T09:32:42;97847.00;;;5.88;91.60
22259;BME280;11298;46.034;14.496;2022-11-20T09:35:09;97859.06;;;5.92;90.90
22259;BME280;11298;46.034;14.496;2022-11-20T09:37:37;97863.75;;;5.83;91.13
22259;BME280;11298;46.034;14.496;2022-11-20T09:40:05;97855.66;;;5.83;91.14
22259;BME280;11298;46.034;14.496;2022-11-20T09:42:45;97864.47;;;5.92;90.96
22259;BME280;11298;46.034;14.496;2022-11-20T09:51:21;97858.19;;;6.06;90.32
22259;BME280;11298;46.034;14.496;2022-11-20T09:56:37;97858.78;;;6.29;89.64
22259;BME280;11298;46.034;14.496;2022-11-20T09:59:11;97861.69;;;6.56;89.58
22259;BME280;11298;46.034;14.496;2022-11-20T10:01:41;97854.94;;;6.73;88.99
22259;BME280;11298;46.034;14.496;2022-11-20T10:04:13;97840.41;;;6.74;88.86
22259;BME280;11298;46.034;14.496;2022-11-20T10:06:56;97843.44;;;6.92;88.79
22259;BME280;11298;46.034;14.496;2022-11-20T10:10:04;97839.13;;;7.04;88.49
22259;BME280;11298;46.034;14.496;2022-11-20T10:14:09;97843.16;;;7.22;87.91
22259;BME280;11298;46.034;14.496;2022-11-20T10:19:25;97839.88;;;7.26;86.90
22259;BME280;11298;46.034;14.496;2022-11-20T10:22:21;97837.75;;;7.22;86.83
22259;BME280;11298;46.034;14.496;2022-11-20T10:24:56;97842.97;;;7.30;86.39
22259;BME280;11298;46.034;14.496;2022-11-20T10:30:08;97830.94;;;7.39;86.48
22259;BME280;11298;46.034;14.496;2022-11-20T10:32:38;97843.25;;;7.48;86.27
22259;BME280;11298;46.034;14.496;2022-11-20T10:35:25;97832.00;;;7.38;86.20
22259;BME280;11298;46.034;14.496;2022-11-20T10:38:05;97835.31;;;7.40;86.19
22259;BME280;11298;46.034;14.496;2022-11-20T10:40:45;97837.38;;;7.38;86.02
22259;BME280;11298;46.034;14.496;2022-11-20T10:43:19;97830.72;;;7.34;85.96
22259;BME280;11298;46.034;14.496;2022-11-20T10:48:22;97818.66;;;7.23;85.30
22259;BME280;11298;46.034;14.496;2022-11-20T10:53:47;97827.41;;;7.38;85.19
22259;BME280;11298;46.034;14.496;2022-11-20T10:56:25;97845.13;;;7.48;84.81
22259;BME280;11298;46.034;14.496;2022-11-20T10:59:15;97838.44;;;7.37;84.87
22259;BME280;11298;46.034;14.496;2022-11-20T11:01:49;97812.59;;;7.15;84.92
22259;BME280;11298;46.034;14.496;2022-11-20T11:04:30;97836.94;;;7.21;84.75
22259;BME280;11298;46.034;14.496;2022-11-20T11:07:07;97838.59;;;7.22;84.78
22259;BME280;11298;46.034;14.496;2022-11-20T11:09:43;97832.75;;;7.19;84.97
22259;BME280;11298;46.034;14.496;2022-11-20T11:12:11;97838.75;;;7.14;84.88
22259;BME280;11298;46.034;14.496;2022-11-20T11:14:43;97839.41;;;7.16;84.94
22259;BME280;11298;46.034;14.496;2022-11-20T11:17:25;97835.44;;;7.12;84.88
22259;BME280;11298;46.034;14.496;2022-11-20T11:20:21;97843.13;;;7.15;84.86
22259;BME280;11298;46.034;14.496;2022-11-20T11:22:56;97839.13;;;7.04;84.89
22259;BME280;11298;46.034;14.496;2022-11-20T11:25:35;97830.56;;;6.94;84.99
22259;BME280;11298;46.034;14.496;2022-11-20T11:28:04;97837.25;;;7.05;84.96
22259;BME280;11298;46.034;14.496;2022-11-20T11:30:42;97837.28;;;7.12;84.53
22259;BME280;11298;46.034;14.496;2022-11-20T11:33:17;97836.44;;;7.04;84.58
22259;BME280;11298;46.034;14.496;2022-11-20T11:35:50;97831.63;;;7.00;84.69
22259;BME280;11298;46.034;14.496;2022-11-20T11:40:55;97830.63;;;7.07;84.23
22259;BME280;11298;46.034;14.496;2022-11-20T11:43:26;97832.69;;;7.05;84.50
22259;BME280;11298;46.034;14.496;2022-11-20T11:46:27;97834.13;;;7.01;84.24
22259;BME280;11298;46.034;14.496;2022-11-20T11:54:20;97819.00;;;7.07;84.31
22259;BME280;11298;46.034;14.496;2022-11-20T11:56:50;97809.84;;;7.01;84.41
22259;BME280;11298;46.034;14.496;2022-11-20T11:59:49;97816.50;;;7.05;84.41
22259;BME280;11298;46.034;14.496;2022-11-20T12:02:47;97817.72;;;7.03;84.28
22259;BME280;11298;46.034;14.496;2022-11-20T12:05:40;97810.06;;;7.06;84.42
22259;BME280;11298;46.034;14.496;2022-11-20T12:11:06;97828.81;;;7.21;84.08
22259;BME280;11298;46.034;14.496;2022-11-20T12:16:13;97825.56;;;7.39;83.59
22259;BME280;11298;46.034;14.496;2022-11-20T12:18:41;97828.47;;;7.44;83.74
22259;BME280;11298;46.034;14.496;2022-11-20T12:21:31;97827.84;;;7.42;83.84
22259;BME280;11298;46.034;14.496;2022-11-20T12:27:25;97830.59;;;7.55;83.41
22259;BME280;11298;46.034;14.496;2022-11-20T12:30:08;97809.19;;;7.54;83.26
22259;BME280;11298;46.034;14.496;2022-11-20T12:32:52;97815.25;;;7.76;83.24
22259;BME280;11298;46.034;14.496;2022-11-20T12:43:30;97815.47;;;8.07;82.48
22259;BME280;11298;46.034;14.496;2022-11-20T12:46:29;97808.84;;;8.16;81.93
22259;BME280;11298;46.034;14.496;2022-11-20T12:49:23;97809.88;;;8.28;81.44
22259;BME280;11298;46.034;14.496;2022-11-20T12:57:40;97806.53;;;8.53;80.86
22259;BME280;11298;46.034;14.496;2022-11-20T13:00:19;97805.50;;;8.54;80.95
22259;BME280;11298;46.034;14.496;2022-11-20T13:08:28;97804.88;;;8.65;80.52
22259;BME280;11298;46.034;14.496;2022-11-20T13:14:03;97792.94;;;8.79;79.90
22259;BME280;11298;46.034;14.496;2022-11-20T13:19:12;97779.06;;;9.14;79.19
22259;BME280;11298;46.034;14.496;2022-11-20T13:21:42;97789.44;;;9.30;78.64
22259;BME280;11298;46.034;14.496;2022-11-20T13:24:31;97791.75;;;9.26;78.53
22259;BME280;11298;46.034;14.496;2022-11-20T13:29:35;97768.91;;;9.02;78.26
22259;BME280;11298;46.034;14.496;2022-11-20T13:34:39;97777.88;;;9.03;77.90
22259;BME280;11298;46.034;14.496;2022-11-20T13:37:36;97765.38;;;9.02;77.68
22259;BME280;11298;46.034;14.496;2022-11-20T13:42:46;97776.66;;;9.37;77.13
22259;BME280;11298;46.034;14.496;2022-11-20T13:45:27;97772.53;;;9.34;76.88
22259;BME280;11298;46.034;14.496;2022-11-20T13:47:57;97774.22;;;9.29;76.50
22259;BME280;11298;46.034;14.496;2022-11-20T13:51:28;97781.53;;;9.28;76.74
22259;BME280;11298;46.034;14.496;2022-11-20T13:53:57;97785.06;;;9.29;76.52
22259;BME280;11298;46.034;14.496;2022-11-20T13:56:52;97783.41;;;9.28;76.68
22259;BME280;11298;46.034;14.496;2022-11-20T14:02:15;97778.00;;;9.21;77.06
22259;BME280;11298;46.034;14.496;2022-11-20T14:04:47;97778.00;;;9.21;77.21
22259;BME280;11298;46.034;14.496;2022-11-20T14:07:18;97766.97;;;9.16;77.56
22259;BME280;11298;46.034;14.496;2022-11-20T14:09:54;97775.31;;;9.15;77.78
22259;BME280;11298;46.034;14.496;2022-11-20T14:12:27;97771.66;;;8.96;77.61
22259;BME280;11298;46.034;14.496;2022-11-20T14:14:55;97779.56;;;8.97;77.67
22259;BME280;11298;46.034;14.496;2022-11-20T14:20:11;97769.63;;;8.78;77.61
22259;BME280;11298;46.034;14.496;2022-11-20T14:22:39;97767.56;;;8.73;77.57
22259;BME280;11298;46.034;14.496;2022-11-20T14:25:19;97779.22;;;8.67;77.68
22259;BME280;11298;46.034;14.496;2022-11-20T14:27:55;97775.94;;;8.59;78.11
22259;BME280;11298;46.034;14.496;2022-11-20T14:30:25;97769.09;;;8.50;78.31
22259;BME280;11298;46.034;14.496;2022-11-20T14:33:02;97777.41;;;8.42;78.44
22259;BME280;11298;46.034;14.496;2022-11-20T14:35:34;97771.81;;;8.23;78.37
22259;BME280;11298;46.034;14.496;2022-11-20T14:38:01;97779.72;;;8.05;78.72
22259;BME280;11298;46.034;14.496;2022-11-20T14:40:32;97762.25;;;7.81;78.92